createdAt,value
2016-03-20T00:01:51.245Z,4.1
2016-03-20T00:04:53.350Z,4.1
2016-03-20T00:08:05.341Z,4
2016-03-20T00:11:15.631Z,4
2016-03-20T00:14:27.623Z,4
2016-03-20T00:17:42.897Z,4.1
2016-03-20T00:20:50.077Z,4.1
2016-03-20T00:23:52.070Z,4.1
2016-03-20T00:27:04.018Z,4.1
2016-03-20T00:30:15.760Z,4
2016-03-20T00:33:27.925Z,4
2016-03-20T00:36:44.980Z,4
2016-03-20T00:39:47.113Z,4
2016-03-20T00:42:59.045Z,3.9
2016-03-20T00:46:10.944Z,3.9
2016-03-20T00:49:22.718Z,3.9
2016-03-20T00:52:33.632Z,3.9
2016-03-20T00:55:48.281Z,3.9
2016-03-20T00:58:50.335Z,3.9
2016-03-20T01:01:59.346Z,3.8
2016-03-20T01:05:10.979Z,3.8
2016-03-20T01:08:22.972Z,3.7
2016-03-20T01:11:32.730Z,3.7
2016-03-20T01:14:46.894Z,3.6
2016-03-20T01:17:55.280Z,3.6
2016-03-20T01:21:06.476Z,3.7
2016-03-20T01:24:13.812Z,3.6
2016-03-20T01:27:27.867Z,3.7
2016-03-20T01:30:42.579Z,3.7
2016-03-20T01:33:49.571Z,3.7
2016-03-20T01:36:51.437Z,3.7
2016-03-20T01:40:00.746Z,3.7
2016-03-20T01:43:09.675Z,3.7
2016-03-20T01:46:21.839Z,3.7
2016-03-20T01:49:33.894Z,3.7
2016-03-20T01:52:49.481Z,3.7
2016-03-20T01:55:51.505Z,3.6
2016-03-20T01:59:03.374Z,3.6
2016-03-20T02:02:15.804Z,3.6
2016-03-20T02:05:25.766Z,3.5
2016-03-20T02:08:36.367Z,3.4
2016-03-20T02:11:50.064Z,3.5
2016-03-20T02:14:52.103Z,3.5
2016-03-20T02:18:01.691Z,3.5
2016-03-20T02:21:13.793Z,3.5
2016-03-20T02:24:25.833Z,3.5
2016-03-20T02:27:35.888Z,3.5
2016-03-20T02:30:50.037Z,3.4
2016-03-20T02:33:51.904Z,3.4
2016-03-20T02:37:03.196Z,3.4
2016-03-20T02:40:12.751Z,3.4
2016-03-20T02:43:24.586Z,3.4
2016-03-20T02:46:36.313Z,3.4
2016-03-20T02:49:49.994Z,3.4
2016-03-20T02:52:52.049Z,3.3
2016-03-20T02:55:59.403Z,3.3
2016-03-20T02:59:13.426Z,3.3
2016-03-20T03:02:22.747Z,3.3
2016-03-20T03:05:32.693Z,3.3
2016-03-20T03:11:48.747Z,3.3
2016-03-20T03:15:00.446Z,3.3
2016-03-20T03:18:08.704Z,3.3
2016-03-20T03:21:20.462Z,3.3
2016-03-20T03:24:30.391Z,3.2
2016-03-20T03:27:47.149Z,3.3
2016-03-20T03:30:48.939Z,3.3
2016-03-20T03:33:58.231Z,3.3
2016-03-20T03:37:09.926Z,3.3
2016-03-20T03:40:19.512Z,3.2
2016-03-20T03:43:28.567Z,3.2
2016-03-20T03:46:42.435Z,3.2
2016-03-20T03:49:49.349Z,3.2
2016-03-20T03:52:51.296Z,3.2
2016-03-20T03:55:59.196Z,3.2
2016-03-20T03:59:07.610Z,3.2
2016-03-20T04:02:19.478Z,3.2
2016-03-20T04:05:30.631Z,3.2
2016-03-20T04:08:44.718Z,3.2
2016-03-20T04:11:51.555Z,3.2
2016-03-20T04:14:57.658Z,3.2
2016-03-20T04:18:05.135Z,3.3
2016-03-20T04:21:17.049Z,3.3
2016-03-20T04:24:29.042Z,3.4
2016-03-20T04:27:45.899Z,3.4
2016-03-20T04:30:47.791Z,3.3
2016-03-20T04:33:56.572Z,3.3
2016-03-20T04:37:06.146Z,3.3
2016-03-20T04:40:19.993Z,3.3
2016-03-20T04:43:31.670Z,3.3
2016-03-20T04:46:48.409Z,3.3
2016-03-20T04:49:50.339Z,3.3
2016-03-20T04:53:00.522Z,3.3
2016-03-20T04:56:12.312Z,3.3
2016-03-20T04:59:22.445Z,3.3
2016-03-20T05:02:34.156Z,3.3
2016-03-20T05:05:48.680Z,3.4
2016-03-20T05:08:50.563Z,3.4
2016-03-20T05:12:02.729Z,3.4
2016-03-20T05:15:14.612Z,3.4
2016-03-20T05:18:26.433Z,3.3
2016-03-20T05:21:35.410Z,3.3
2016-03-20T05:24:47.184Z,3.3
2016-03-20T05:27:56.722Z,3.3
2016-03-20T05:31:06.905Z,3.3
2016-03-20T05:34:15.632Z,3.3
2016-03-20T05:37:27.609Z,3.3
2016-03-20T05:40:44.413Z,3.3
2016-03-20T05:43:51.156Z,3.3
2016-03-20T05:46:52.898Z,3.3
2016-03-20T05:50:04.520Z,3.3
2016-03-20T05:53:12.903Z,3.3
2016-03-20T05:56:22.535Z,3.3
2016-03-20T05:59:36.309Z,3.4
2016-03-20T06:02:47.973Z,3.4
2016-03-20T06:05:57.434Z,3.3
2016-03-20T06:09:11.071Z,3.4
2016-03-20T06:12:22.874Z,3.3
2016-03-20T06:15:34.790Z,3.3
2016-03-20T06:18:51.579Z,3.4
2016-03-20T06:21:51.290Z,3.5
2016-03-20T06:25:05.097Z,3.5
2016-03-20T06:28:16.933Z,3.5
2016-03-20T06:31:26.505Z,3.5
2016-03-20T06:34:43.356Z,3.5
2016-03-20T06:37:50.363Z,3.5
2016-03-20T06:40:52.310Z,3.5
2016-03-20T06:44:03.993Z,3.5
2016-03-20T06:47:15.719Z,3.6
2016-03-20T06:50:27.398Z,3.5
2016-03-20T06:53:44.017Z,3.6
2016-03-20T06:56:50.915Z,3.6
2016-03-20T06:59:52.689Z,3.5
2016-03-20T07:03:02.950Z,3.6
2016-03-20T07:06:14.645Z,3.6
2016-03-20T07:09:26.763Z,3.6
2016-03-20T07:12:43.115Z,3.6
2016-03-20T07:15:50.123Z,3.7
2016-03-20T07:18:52.099Z,3.8
2016-03-20T07:22:00.264Z,3.8
2016-03-20T07:25:11.884Z,3.8
2016-03-20T07:28:21.720Z,3.9
2016-03-20T07:31:33.541Z,3.9
2016-03-20T07:34:49.642Z,3.9
2016-03-20T07:37:51.731Z,3.9
2016-03-20T07:41:01.648Z,4
2016-03-20T07:44:11.250Z,4
2016-03-20T07:47:22.665Z,4
2016-03-20T07:50:31.860Z,4
2016-03-20T07:53:48.807Z,4
2016-03-20T07:56:50.955Z,4
2016-03-20T08:00:03.090Z,3.9
2016-03-20T08:03:14.895Z,3.9
2016-03-20T08:06:27.106Z,4
2016-03-20T08:09:43.942Z,4.1
2016-03-20T08:12:51.075Z,4
2016-03-20T08:15:53.099Z,4
2016-03-20T08:19:05.047Z,3.9
2016-03-20T08:22:15.477Z,3.9
2016-03-20T08:25:27.626Z,3.9
2016-03-20T08:28:44.572Z,4
2016-03-20T08:31:51.579Z,4.1
2016-03-20T08:34:53.759Z,4.2
2016-03-20T08:38:02.833Z,4.2
2016-03-20T08:41:12.419Z,4.2
2016-03-20T08:44:24.552Z,4.2
2016-03-20T08:47:36.513Z,4.1
2016-03-20T08:50:48.380Z,4.1
2016-03-20T08:54:00.373Z,4.2
2016-03-20T08:57:12.493Z,4.3
2016-03-20T09:00:24.907Z,4.3
2016-03-20T09:03:36.932Z,4.3
2016-03-20T09:06:51.580Z,4.3
2016-03-20T09:09:53.697Z,4.3
2016-03-20T09:13:05.630Z,4.3
2016-03-20T09:16:14.997Z,4.2
2016-03-20T09:19:26.255Z,4.3
2016-03-20T09:22:36.373Z,4.3
2016-03-20T09:25:47.521Z,4.3
2016-03-20T09:28:59.404Z,4.4
2016-03-20T09:32:09.182Z,4.3
2016-03-20T09:35:19.111Z,4.3
2016-03-20T09:38:31.120Z,4.3
2016-03-20T09:41:48.034Z,4.3
2016-03-20T09:44:50.089Z,4.3
2016-03-20T09:48:01.863Z,4.5
2016-03-20T09:51:13.920Z,4.7
2016-03-20T09:54:25.960Z,4.7
2016-03-20T09:57:36.155Z,4.7
2016-03-20T10:00:50.647Z,4.8
2016-03-20T10:03:52.562Z,4.7
2016-03-20T10:07:02.117Z,4.7
2016-03-20T10:10:11.721Z,4.8
2016-03-20T10:13:23.683Z,4.8
2016-03-20T10:16:35.799Z,5
2016-03-20T10:19:49.901Z,5
2016-03-20T10:22:52.003Z,5.2
2016-03-20T10:26:04.030Z,5.3
2016-03-20T10:29:13.929Z,5.4
2016-03-20T10:32:23.265Z,5.5
2016-03-20T10:35:33.429Z,5.5
2016-03-20T10:38:50.375Z,5.3
2016-03-20T10:41:52.523Z,5.4
2016-03-20T10:45:01.937Z,5.5
2016-03-20T10:48:13.730Z,5.5
2016-03-20T10:51:25.863Z,5.5
2016-03-20T10:54:42.933Z,5.6
2016-03-20T10:57:49.988Z,5.5
2016-03-20T11:00:49.980Z,5.5
2016-03-20T11:04:04.051Z,5.6
2016-03-20T11:07:15.983Z,5.7
2016-03-20T11:10:25.945Z,5.9
2016-03-20T11:13:42.812Z,6
2016-03-20T11:16:49.883Z,6
2016-03-20T11:19:51.922Z,5.9
2016-03-20T11:23:03.883Z,5.9
2016-03-20T11:26:13.832Z,5.9
2016-03-20T11:29:25.871Z,6.1
2016-03-20T11:32:42.660Z,6.1
2016-03-20T11:35:49.809Z,6.1
2016-03-20T11:38:51.926Z,6
2016-03-20T11:42:04.044Z,5.9
2016-03-20T11:45:16.039Z,5.9
2016-03-20T11:48:25.344Z,6
2016-03-20T11:51:34.961Z,5.9
2016-03-20T11:54:50.454Z,5.9
2016-03-20T11:57:52.618Z,5.8
2016-03-20T12:01:04.549Z,5.8
2016-03-20T12:04:13.699Z,5.8
2016-03-20T12:07:25.645Z,6
2016-03-20T12:10:37.668Z,6
2016-03-20T12:13:49.677Z,6.1
2016-03-20T12:16:57.059Z,6.1
2016-03-20T12:20:10.602Z,6
2016-03-20T12:23:20.563Z,6.1
2016-03-20T12:26:30.072Z,6.1
2016-03-20T12:29:46.955Z,6.2
2016-03-20T12:32:49.166Z,6.2
2016-03-20T12:35:58.736Z,6.2
2016-03-20T12:39:07.198Z,6.2
2016-03-20T12:42:16.474Z,6.2
2016-03-20T12:45:28.434Z,6.3
2016-03-20T12:48:41.568Z,6.4
2016-03-20T12:51:53.076Z,6.5
2016-03-20T12:54:55.537Z,6.6
2016-03-20T12:58:06.044Z,6.6
2016-03-20T13:01:16.227Z,6.6
2016-03-20T13:04:25.688Z,6.6
2016-03-20T13:07:37.868Z,6.6
2016-03-20T13:10:49.940Z,6.7
2016-03-20T13:13:59.463Z,6.8
2016-03-20T13:17:09.471Z,6.8
2016-03-20T13:20:21.498Z,6.8
2016-03-20T13:23:30.694Z,6.8
2016-03-20T13:26:47.295Z,7
2016-03-20T13:29:49.741Z,7.1
2016-03-20T13:33:02.078Z,7.1
2016-03-20T13:36:14.308Z,7.1
2016-03-20T13:39:26.482Z,7
2016-03-20T13:42:43.661Z,6.9
2016-03-20T13:45:50.914Z,7
2016-03-20T13:48:53.198Z,7.2
2016-03-20T13:52:05.110Z,7.2
2016-03-20T13:55:17.211Z,7.3
2016-03-20T13:58:33.502Z,7.2
2016-03-20T14:01:45.869Z,7.1
2016-03-20T14:04:53.066Z,7.2
2016-03-20T14:07:55.260Z,7.1
2016-03-20T14:11:05.815Z,7.2
2016-03-20T14:14:18.089Z,7.2
2016-03-20T14:17:27.303Z,7.3
2016-03-20T14:20:38.451Z,7.3
2016-03-20T14:23:50.287Z,7.3
2016-03-20T14:27:02.467Z,7.1
2016-03-20T14:30:11.772Z,6.9
2016-03-20T14:33:21.234Z,6.9
2016-03-20T14:36:30.932Z,6.9
2016-03-20T14:39:46.987Z,6.8
2016-03-20T14:42:49.386Z,6.8
2016-03-20T14:46:01.801Z,6.7
2016-03-20T14:49:14.059Z,6.6
2016-03-20T14:52:26.037Z,6.7
2016-03-20T14:55:37.561Z,6.7
2016-03-20T14:58:52.726Z,6.7
2016-03-20T15:01:55.015Z,6.6
2016-03-20T15:05:07.288Z,6.6
2016-03-20T15:08:18.812Z,6.5
2016-03-20T15:11:29.276Z,6.4
2016-03-20T15:14:46.581Z,6.5
2016-03-20T15:17:48.698Z,6.3
2016-03-20T15:21:00.784Z,6.3
2016-03-20T15:24:09.418Z,6.2
2016-03-20T15:27:20.989Z,6.1
2016-03-20T15:30:32.296Z,6.1
2016-03-20T15:33:49.022Z,6
2016-03-20T15:36:55.328Z,5.9
2016-03-20T15:40:03.367Z,6
2016-03-20T15:43:13.562Z,6
2016-03-20T15:46:25.573Z,6.1
2016-03-20T15:49:35.612Z,6.1
2016-03-20T15:52:51.715Z,6.1
2016-03-20T15:55:53.956Z,6
2016-03-20T15:59:06.246Z,6
2016-03-20T16:02:16.786Z,6
2016-03-20T16:05:28.780Z,6
2016-03-20T16:08:38.538Z,5.9
2016-03-20T16:11:48.640Z,5.9
2016-03-20T16:15:00.243Z,5.9
2016-03-20T16:18:11.938Z,5.8
2016-03-20T16:21:23.339Z,5.8
2016-03-20T16:24:35.331Z,5.8
2016-03-20T16:27:52.200Z,5.8
2016-03-20T16:30:54.192Z,5.7
2016-03-20T16:34:04.543Z,5.7
2016-03-20T16:37:14.973Z,5.7
2016-03-20T16:40:26.891Z,5.7
2016-03-20T16:43:37.805Z,5.6
2016-03-20T16:46:50.000Z,5.6
2016-03-20T16:49:59.664Z,5.6
2016-03-20T16:53:11.720Z,5.6
2016-03-20T16:56:19.853Z,5.5
2016-03-20T16:59:29.441Z,5.5
2016-03-20T17:02:35.746Z,5.5
2016-03-20T17:05:49.910Z,5.5
2016-03-20T17:08:58.804Z,5.5
2016-03-20T17:12:12.431Z,5.5
2016-03-20T17:15:23.080Z,5.5
2016-03-20T17:18:34.357Z,5.5
2016-03-20T17:21:51.209Z,5.5
2016-03-20T17:24:53.420Z,5.4
2016-03-20T17:28:03.130Z,5.5
2016-03-20T17:31:17.810Z,5.6
2016-03-20T17:34:25.556Z,5.6
2016-03-20T17:37:35.204Z,5.7
2016-03-20T17:40:52.057Z,5.7
2016-03-20T17:43:54.221Z,5.6
2016-03-20T17:47:06.057Z,5.6
2016-03-20T17:50:17.596Z,5.6
2016-03-20T17:53:29.684Z,5.5
2016-03-20T17:56:46.709Z,5.4
2016-03-20T17:59:48.967Z,5.4
2016-03-20T18:02:58.756Z,5.4
2016-03-20T18:06:12.827Z,5.4
2016-03-20T18:09:25.040Z,5.2
2016-03-20T18:12:36.940Z,5.2
2016-03-20T18:15:51.682Z,5.1
2016-03-20T18:18:53.862Z,5.1
2016-03-20T18:22:05.823Z,5
2016-03-20T18:25:16.081Z,4.9
2016-03-20T18:28:26.857Z,4.9
2016-03-20T18:31:36.803Z,4.8
2016-03-20T18:34:50.780Z,4.8
2016-03-20T18:37:52.725Z,4.7
2016-03-20T18:41:01.780Z,4.8
2016-03-20T18:44:09.741Z,4.8
2016-03-20T18:47:19.093Z,4.7
2016-03-20T18:50:29.542Z,4.7
2016-03-20T18:53:44.753Z,4.6
2016-03-20T18:56:52.011Z,4.6
2016-03-20T18:59:53.770Z,4.7
2016-03-20T19:03:00.933Z,4.6
2016-03-20T19:06:12.457Z,4.6
2016-03-20T19:09:19.843Z,4.6
2016-03-20T19:12:27.792Z,4.6
2016-03-20T19:15:36.191Z,4.5
2016-03-20T19:18:50.745Z,4.5
2016-03-20T19:21:52.723Z,4.5
2016-03-20T19:25:01.216Z,4.4
2016-03-20T19:28:12.894Z,4.3
2016-03-20T19:31:24.562Z,4.1
2016-03-20T19:34:35.633Z,4.1
2016-03-20T19:37:52.391Z,4.1
2016-03-20T19:40:54.367Z,4.1
2016-03-20T19:44:05.833Z,4.1
2016-03-20T19:47:17.278Z,4
2016-03-20T19:50:28.398Z,3.9
2016-03-20T19:53:45.250Z,3.8
2016-03-20T19:56:52.134Z,3.8
2016-03-20T19:59:54.017Z,3.8
2016-03-20T20:03:05.820Z,3.7
2016-03-20T20:06:15.408Z,3.7
2016-03-20T20:09:23.743Z,3.6
2016-03-20T20:12:33.630Z,3.5
2016-03-20T20:15:50.543Z,3.5
2016-03-20T20:18:52.426Z,3.4
2016-03-20T20:22:04.076Z,3.3
2016-03-20T20:25:15.849Z,3.3
2016-03-20T20:28:27.859Z,3.3
2016-03-20T20:31:36.914Z,3.3
2016-03-20T20:34:53.220Z,3.2
2016-03-20T20:37:55.059Z,3.2
2016-03-20T20:41:05.708Z,3.2
2016-03-20T20:44:17.294Z,3.2
2016-03-20T20:47:28.101Z,3.2
2016-03-20T20:50:35.281Z,3.1
2016-03-20T20:53:51.445Z,3.1
2016-03-20T20:56:53.407Z,2.9
2016-03-20T21:00:02.884Z,2.8
2016-03-20T21:03:12.532Z,2.8
2016-03-20T21:06:21.086Z,2.7
2016-03-20T21:09:34.270Z,2.6
2016-03-20T21:12:49.106Z,2.6
2016-03-20T21:15:50.958Z,2.5
2016-03-20T21:19:01.263Z,2.5
2016-03-20T21:22:08.927Z,2.4
2016-03-20T21:25:17.888Z,2.4
2016-03-20T21:28:25.318Z,2.3
2016-03-20T21:31:35.360Z,2.3
2016-03-20T21:34:51.228Z,2.2
2016-03-20T21:37:52.470Z,2.2
2016-03-20T21:41:02.650Z,2.2
2016-03-20T21:44:08.455Z,2.2
2016-03-20T21:47:22.447Z,2.1
2016-03-20T21:50:32.255Z,2.1
2016-03-20T21:53:48.466Z,2
2016-03-20T21:56:50.115Z,2
2016-03-20T22:00:00.623Z,1.9
2016-03-20T22:03:09.726Z,1.9
2016-03-20T22:06:18.390Z,1.9
2016-03-20T22:09:27.881Z,1.9
2016-03-20T22:12:37.267Z,1.9
2016-03-20T22:15:51.354Z,1.8
2016-03-20T22:19:02.596Z,1.8
2016-03-20T22:22:12.447Z,1.8
2016-03-20T22:25:22.675Z,1.8
2016-03-20T22:28:31.761Z,1.8
2016-03-20T22:31:47.038Z,1.8
2016-03-20T22:34:53.623Z,1.8
2016-03-20T22:37:55.256Z,1.7
2016-03-20T22:41:06.351Z,1.7
2016-03-20T22:44:17.532Z,1.7
2016-03-20T22:47:29.043Z,1.7
2016-03-20T22:50:45.496Z,1.7
2016-03-20T22:53:52.266Z,1.6
2016-03-20T22:56:53.975Z,1.6
2016-03-20T23:00:05.702Z,1.6
2016-03-20T23:03:14.788Z,1.5
2016-03-20T23:06:21.547Z,1.5
2016-03-20T23:09:35.354Z,1.5
2016-03-20T23:12:52.143Z,1.5
2016-03-20T23:15:53.965Z,1.5
2016-03-20T23:19:00.940Z,1.5
2016-03-20T23:22:15.105Z,1.5
2016-03-20T23:25:26.863Z,1.5
2016-03-20T23:28:38.030Z,1.5
2016-03-20T23:31:54.085Z,1.5
2016-03-20T23:34:55.874Z,1.5
2016-03-20T23:38:07.601Z,1.5
2016-03-20T23:41:19.202Z,1.5
2016-03-20T23:44:30.789Z,1.5
2016-03-20T23:47:47.253Z,1.5
2016-03-20T23:50:54.073Z,1.5
2016-03-20T23:53:55.862Z,1.5
2016-03-20T23:57:05.934Z,1.4
